sensor_id;sensor_type;location;lat;lon;timestamp;P1;durP1;ratioP1;P2;durP2;ratioP2
29662;SDS011;16578;53.266;7.920;2023-05-07T00:02:13;24.15;;;20.10;;
29662;SDS011;16578;53.266;7.920;2023-05-07T00:04:39;26.27;;;20.85;;
29662;SDS011;16578;53.266;7.920;2023-05-07T00:07:04;24.45;;;20.33;;
29662;SDS011;16578;53.266;7.920;2023-05-07T00:09:30;25.25;;;20.20;;
29662;SDS011;16578;53.266;7.920;2023-05-07T00:11:56;26.92;;;20.98;;
29662;SDS011;16578;53.266;7.920;2023-05-07T00:14:21;25.45;;;20.00;;
29662;SDS011;16578;53.266;7.920;2023-05-07T00:16:47;24.88;;;19.77;;
29662;SDS011;16578;53.266;7.920;2023-05-07T00:19:12;24.33;;;19.33;;
29662;SDS011;16578;53.266;7.920;2023-05-07T00:21:38;26.02;;;19.98;;
29662;SDS011;16578;53.266;7.920;2023-05-07T00:24:03;23.45;;;19.58;;
29662;SDS011;16578;53.266;7.920;2023-05-07T00:26:29;28.63;;;21.00;;
29662;SDS011;16578;53.266;7.920;2023-05-07T00:28:55;27.02;;;22.80;;
29662;SDS011;16578;53.266;7.920;2023-05-07T00:31:20;28.83;;;22.45;;
29662;SDS011;16578;53.266;7.920;2023-05-07T00:33:46;28.95;;;23.17;;
29662;SDS011;16578;53.266;7.920;2023-05-07T00:36:11;31.40;;;24.83;;
29662;SDS011;16578;53.266;7.920;2023-05-07T00:38:37;29.58;;;24.52;;
29662;SDS011;16578;53.266;7.920;2023-05-07T00:41:02;31.92;;;26.17;;
29662;SDS011;16578;53.266;7.920;2023-05-07T00:43:28;35.05;;;27.10;;
29662;SDS011;16578;53.266;7.920;2023-05-07T00:45:54;33.08;;;26.75;;
29662;SDS011;16578;53.266;7.920;2023-05-07T00:48:20;34.28;;;27.52;;
29662;SDS011;16578;53.266;7.920;2023-05-07T00:50:46;32.53;;;26.10;;
29662;SDS011;16578;53.266;7.920;2023-05-07T00:53:12;34.70;;;26.67;;
29662;SDS011;16578;53.266;7.920;2023-05-07T00:55:38;32.78;;;25.92;;
29662;SDS011;16578;53.266;7.920;2023-05-07T00:58:04;33.70;;;26.58;;
29662;SDS011;16578;53.266;7.920;2023-05-07T01:00:30;28.90;;;24.83;;
29662;SDS011;16578;53.266;7.920;2023-05-07T01:02:56;33.33;;;25.10;;
29662;SDS011;16578;53.266;7.920;2023-05-07T01:05:22;33.60;;;28.20;;
29662;SDS011;16578;53.266;7.920;2023-05-07T01:07:50;33.10;;;27.20;;
29662;SDS011;16578;53.266;7.920;2023-05-07T01:10:16;31.52;;;27.85;;
29662;SDS011;16578;53.266;7.920;2023-05-07T01:12:42;36.97;;;27.35;;
29662;SDS011;16578;53.266;7.920;2023-05-07T01:15:09;33.78;;;28.27;;
29662;SDS011;16578;53.266;7.920;2023-05-07T01:17:36;33.08;;;28.65;;
29662;SDS011;16578;53.266;7.920;2023-05-07T01:20:03;33.05;;;27.08;;
29662;SDS011;16578;53.266;7.920;2023-05-07T01:22:39;30.52;;;26.20;;
29662;SDS011;16578;53.266;7.920;2023-05-07T01:25:06;28.35;;;24.77;;
29662;SDS011;16578;53.266;7.920;2023-05-07T01:27:33;26.20;;;21.77;;
29662;SDS011;16578;53.266;7.920;2023-05-07T01:30:00;21.58;;;19.27;;
29662;SDS011;16578;53.266;7.920;2023-05-07T01:32:33;25.40;;;20.05;;
29662;SDS011;16578;53.266;7.920;2023-05-07T01:35:05;21.60;;;19.13;;
29662;SDS011;16578;53.266;7.920;2023-05-07T01:37:33;21.42;;;17.58;;
29662;SDS011;16578;53.266;7.920;2023-05-07T01:39:59;20.83;;;17.80;;
29662;SDS011;16578;53.266;7.920;2023-05-07T01:42:26;21.98;;;18.42;;
29662;SDS011;16578;53.266;7.920;2023-05-07T01:44:52;24.30;;;18.67;;
29662;SDS011;16578;53.266;7.920;2023-05-07T01:47:18;22.73;;;18.88;;
29662;SDS011;16578;53.266;7.920;2023-05-07T01:49:45;22.95;;;19.88;;
29662;SDS011;16578;53.266;7.920;2023-05-07T01:52:10;21.98;;;18.52;;
29662;SDS011;16578;53.266;7.920;2023-05-07T01:54:37;19.77;;;17.20;;
29662;SDS011;16578;53.266;7.920;2023-05-07T01:57:02;20.77;;;17.77;;
29662;SDS011;16578;53.266;7.920;2023-05-07T01:59:28;20.70;;;18.45;;
29662;SDS011;16578;53.266;7.920;2023-05-07T02:01:53;23.27;;;18.45;;
29662;SDS011;16578;53.266;7.920;2023-05-07T02:04:19;21.42;;;18.65;;
29662;SDS011;16578;53.266;7.920;2023-05-07T02:06:44;20.98;;;18.00;;
29662;SDS011;16578;53.266;7.920;2023-05-07T02:09:10;19.35;;;17.20;;
29662;SDS011;16578;53.266;7.920;2023-05-07T02:11:36;21.75;;;18.00;;
29662;SDS011;16578;53.266;7.920;2023-05-07T02:14:01;20.23;;;17.20;;
29662;SDS011;16578;53.266;7.920;2023-05-07T02:16:27;19.80;;;17.73;;
29662;SDS011;16578;53.266;7.920;2023-05-07T02:18:52;22.58;;;17.95;;
29662;SDS011;16578;53.266;7.920;2023-05-07T02:21:18;20.63;;;17.85;;
29662;SDS011;16578;53.266;7.920;2023-05-07T02:23:43;20.83;;;18.63;;
29662;SDS011;16578;53.266;7.920;2023-05-07T02:26:10;20.83;;;17.88;;
29662;SDS011;16578;53.266;7.920;2023-05-07T02:28:36;19.13;;;17.10;;
29662;SDS011;16578;53.266;7.920;2023-05-07T02:31:04;19.58;;;17.50;;
29662;SDS011;16578;53.266;7.920;2023-05-07T02:35:56;18.42;;;15.93;;
29662;SDS011;16578;53.266;7.920;2023-05-07T02:38:22;20.45;;;17.60;;
29662;SDS011;16578;53.266;7.920;2023-05-07T02:40:48;19.15;;;17.23;;
29662;SDS011;16578;53.266;7.920;2023-05-07T02:43:13;23.35;;;19.67;;
29662;SDS011;16578;53.266;7.920;2023-05-07T02:45:39;22.02;;;19.35;;
29662;SDS011;16578;53.266;7.920;2023-05-07T02:48:04;22.75;;;19.38;;
29662;SDS011;16578;53.266;7.920;2023-05-07T02:50:31;21.30;;;19.02;;
29662;SDS011;16578;53.266;7.920;2023-05-07T02:52:57;22.63;;;19.55;;
29662;SDS011;16578;53.266;7.920;2023-05-07T02:55:23;21.05;;;18.92;;
29662;SDS011;16578;53.266;7.920;2023-05-07T02:57:48;22.52;;;19.77;;
29662;SDS011;16578;53.266;7.920;2023-05-07T03:00:15;21.67;;;19.33;;
29662;SDS011;16578;53.266;7.920;2023-05-07T03:02:42;22.00;;;19.02;;
29662;SDS011;16578;53.266;7.920;2023-05-07T03:05:08;21.45;;;19.15;;
29662;SDS011;16578;53.266;7.920;2023-05-07T03:07:34;24.38;;;19.73;;
29662;SDS011;16578;53.266;7.920;2023-05-07T03:10:00;21.85;;;18.75;;
29662;SDS011;16578;53.266;7.920;2023-05-07T03:12:26;22.75;;;20.10;;
29662;SDS011;16578;53.266;7.920;2023-05-07T03:14:51;22.58;;;20.20;;
29662;SDS011;16578;53.266;7.920;2023-05-07T03:17:17;24.38;;;19.38;;
29662;SDS011;16578;53.266;7.920;2023-05-07T03:19:42;23.85;;;19.95;;
29662;SDS011;16578;53.266;7.920;2023-05-07T03:22:08;22.15;;;19.55;;
29662;SDS011;16578;53.266;7.920;2023-05-07T03:24:33;21.45;;;19.05;;
29662;SDS011;16578;53.266;7.920;2023-05-07T03:26:59;21.73;;;19.42;;
29662;SDS011;16578;53.266;7.920;2023-05-07T03:29:26;22.75;;;20.13;;
29662;SDS011;16578;53.266;7.920;2023-05-07T03:31:51;22.50;;;19.75;;
29662;SDS011;16578;53.266;7.920;2023-05-07T03:34:17;23.58;;;20.55;;
29662;SDS011;16578;53.266;7.920;2023-05-07T03:36:47;21.77;;;19.13;;
29662;SDS011;16578;53.266;7.920;2023-05-07T03:39:15;26.75;;;20.50;;
29662;SDS011;16578;53.266;7.920;2023-05-07T03:41:40;23.83;;;19.70;;
29662;SDS011;16578;53.266;7.920;2023-05-07T03:44:06;22.90;;;20.17;;
29662;SDS011;16578;53.266;7.920;2023-05-07T03:46:32;22.30;;;19.90;;
29662;SDS011;16578;53.266;7.920;2023-05-07T03:48:58;21.15;;;18.95;;
29662;SDS011;16578;53.266;7.920;2023-05-07T03:51:24;22.80;;;19.83;;
29662;SDS011;16578;53.266;7.920;2023-05-07T03:53:50;21.85;;;18.38;;
29662;SDS011;16578;53.266;7.920;2023-05-07T03:56:19;23.58;;;19.25;;
29662;SDS011;16578;53.266;7.920;2023-05-07T03:58:45;20.80;;;18.58;;
29662;SDS011;16578;53.266;7.920;2023-05-07T04:01:12;22.27;;;18.85;;
29662;SDS011;16578;53.266;7.920;2023-05-07T04:03:37;22.23;;;18.92;;
29662;SDS011;16578;53.266;7.920;2023-05-07T04:06:03;22.25;;;19.05;;
29662;SDS011;16578;53.266;7.920;2023-05-07T04:08:28;21.58;;;18.08;;
29662;SDS011;16578;53.266;7.920;2023-05-07T04:10:55;22.85;;;19.88;;
29662;SDS011;16578;53.266;7.920;2023-05-07T04:13:21;23.15;;;18.52;;
29662;SDS011;16578;53.266;7.920;2023-05-07T04:15:46;22.98;;;18.95;;
29662;SDS011;16578;53.266;7.920;2023-05-07T04:18:14;21.55;;;19.25;;
29662;SDS011;16578;53.266;7.920;2023-05-07T04:20:39;22.55;;;20.08;;
29662;SDS011;16578;53.266;7.920;2023-05-07T04:23:05;21.25;;;18.95;;
29662;SDS011;16578;53.266;7.920;2023-05-07T04:25:30;22.83;;;18.40;;
29662;SDS011;16578;53.266;7.920;2023-05-07T04:27:56;23.40;;;19.35;;
29662;SDS011;16578;53.266;7.920;2023-05-07T04:30:22;22.75;;;19.38;;
29662;SDS011;16578;53.266;7.920;2023-05-07T04:32:47;20.58;;;17.83;;
29662;SDS011;16578;53.266;7.920;2023-05-07T04:35:13;19.10;;;16.75;;
29662;SDS011;16578;53.266;7.920;2023-05-07T04:37:39;23.98;;;18.73;;
29662;SDS011;16578;53.266;7.920;2023-05-07T04:40:05;21.42;;;18.48;;
29662;SDS011;16578;53.266;7.920;2023-05-07T04:42:31;22.08;;;18.63;;
29662;SDS011;16578;53.266;7.920;2023-05-07T04:44:57;22.25;;;18.70;;
29662;SDS011;16578;53.266;7.920;2023-05-07T04:47:23;21.35;;;18.05;;
29662;SDS011;16578;53.266;7.920;2023-05-07T04:49:48;21.42;;;18.40;;
29662;SDS011;16578;53.266;7.920;2023-05-07T04:52:14;21.02;;;17.42;;
29662;SDS011;16578;53.266;7.920;2023-05-07T04:54:40;20.70;;;17.63;;
29662;SDS011;16578;53.266;7.920;2023-05-07T04:57:05;22.00;;;17.63;;
29662;SDS011;16578;53.266;7.920;2023-05-07T04:59:31;19.70;;;17.58;;
29662;SDS011;16578;53.266;7.920;2023-05-07T05:01:57;19.92;;;17.38;;
29662;SDS011;16578;53.266;7.920;2023-05-07T05:04:23;21.65;;;17.38;;
29662;SDS011;16578;53.266;7.920;2023-05-07T05:06:49;20.27;;;16.75;;
29662;SDS011;16578;53.266;7.920;2023-05-07T05:09:14;21.58;;;17.60;;
29662;SDS011;16578;53.266;7.920;2023-05-07T05:11:40;19.02;;;16.95;;
29662;SDS011;16578;53.266;7.920;2023-05-07T05:14:06;19.73;;;16.70;;
29662;SDS011;16578;53.266;7.920;2023-05-07T05:16:32;20.02;;;16.73;;
29662;SDS011;16578;53.266;7.920;2023-05-07T05:18:57;22.95;;;17.00;;
29662;SDS011;16578;53.266;7.920;2023-05-07T05:21:23;19.23;;;16.90;;
29662;SDS011;16578;53.266;7.920;2023-05-07T05:23:49;20.48;;;17.02;;
29662;SDS011;16578;53.266;7.920;2023-05-07T05:26:15;23.30;;;17.65;;
29662;SDS011;16578;53.266;7.920;2023-05-07T05:28:40;20.80;;;17.45;;
29662;SDS011;16578;53.266;7.920;2023-05-07T05:31:06;21.13;;;17.63;;
29662;SDS011;16578;53.266;7.920;2023-05-07T05:33:31;20.23;;;17.75;;
29662;SDS011;16578;53.266;7.920;2023-05-07T05:35:57;23.17;;;19.10;;
29662;SDS011;16578;53.266;7.920;2023-05-07T05:38:22;19.77;;;17.17;;
29662;SDS011;16578;53.266;7.920;2023-05-07T05:40:48;22.23;;;18.02;;
29662;SDS011;16578;53.266;7.920;2023-05-07T05:43:14;22.15;;;18.10;;
29662;SDS011;16578;53.266;7.920;2023-05-07T05:45:39;20.60;;;17.40;;
29662;SDS011;16578;53.266;7.920;2023-05-07T05:48:05;24.15;;;18.73;;
29662;SDS011;16578;53.266;7.920;2023-05-07T05:50:31;22.95;;;17.65;;
29662;SDS011;16578;53.266;7.920;2023-05-07T05:52:56;18.98;;;16.83;;
29662;SDS011;16578;53.266;7.920;2023-05-07T05:55:22;20.67;;;17.52;;
29662;SDS011;16578;53.266;7.920;2023-05-07T05:57:48;20.35;;;17.33;;
29662;SDS011;16578;53.266;7.920;2023-05-07T06:00:15;19.02;;;16.00;;
29662;SDS011;16578;53.266;7.920;2023-05-07T06:02:41;20.63;;;17.17;;
29662;SDS011;16578;53.266;7.920;2023-05-07T06:05:07;20.00;;;16.58;;
29662;SDS011;16578;53.266;7.920;2023-05-07T06:07:33;20.30;;;15.98;;
29662;SDS011;16578;53.266;7.920;2023-05-07T06:09:59;22.08;;;16.50;;
29662;SDS011;16578;53.266;7.920;2023-05-07T06:12:26;19.95;;;16.48;;
29662;SDS011;16578;53.266;7.920;2023-05-07T06:14:51;19.25;;;16.45;;
29662;SDS011;16578;53.266;7.920;2023-05-07T06:17:17;18.92;;;16.33;;
29662;SDS011;16578;53.266;7.920;2023-05-07T06:19:42;19.00;;;15.13;;
29662;SDS011;16578;53.266;7.920;2023-05-07T06:22:08;19.20;;;17.00;;
29662;SDS011;16578;53.266;7.920;2023-05-07T06:24:33;20.90;;;16.02;;
29662;SDS011;16578;53.266;7.920;2023-05-07T06:26:59;17.88;;;15.98;;
29662;SDS011;16578;53.266;7.920;2023-05-07T06:29:24;19.38;;;15.98;;
29662;SDS011;16578;53.266;7.920;2023-05-07T06:31:55;17.35;;;14.98;;
29662;SDS011;16578;53.266;7.920;2023-05-07T06:34:20;18.48;;;16.48;;
29662;SDS011;16578;53.266;7.920;2023-05-07T06:36:46;18.33;;;15.07;;
29662;SDS011;16578;53.266;7.920;2023-05-07T06:39:11;18.65;;;15.05;;
29662;SDS011;16578;53.266;7.920;2023-05-07T06:41:37;17.95;;;15.68;;
29662;SDS011;16578;53.266;7.920;2023-05-07T06:44:03;17.80;;;15.15;;
29662;SDS011;16578;53.266;7.920;2023-05-07T06:46:30;17.90;;;15.00;;
29662;SDS011;16578;53.266;7.920;2023-05-07T06:48:55;17.70;;;15.07;;
29662;SDS011;16578;53.266;7.920;2023-05-07T06:51:21;16.83;;;14.40;;
29662;SDS011;16578;53.266;7.920;2023-05-07T06:53:47;16.67;;;14.85;;
29662;SDS011;16578;53.266;7.920;2023-05-07T06:56:13;17.17;;;15.38;;
29662;SDS011;16578;53.266;7.920;2023-05-07T06:58:38;17.92;;;15.57;;
29662;SDS011;16578;53.266;7.920;2023-05-07T07:01:04;16.35;;;14.65;;
29662;SDS011;16578;53.266;7.920;2023-05-07T07:03:30;17.33;;;14.65;;
29662;SDS011;16578;53.266;7.920;2023-05-07T07:05:55;17.17;;;14.65;;
29662;SDS011;16578;53.266;7.920;2023-05-07T07:08:21;16.70;;;14.55;;
29662;SDS011;16578;53.266;7.920;2023-05-07T07:10:47;15.90;;;14.30;;
29662;SDS011;16578;53.266;7.920;2023-05-07T07:13:13;14.93;;;13.35;;
29662;SDS011;16578;53.266;7.920;2023-05-07T07:15:38;15.60;;;14.00;;
29662;SDS011;16578;53.266;7.920;2023-05-07T07:18:05;16.67;;;13.60;;
29662;SDS011;16578;53.266;7.920;2023-05-07T07:20:31;14.90;;;13.32;;
29662;SDS011;16578;53.266;7.920;2023-05-07T07:22:56;15.77;;;13.82;;
29662;SDS011;16578;53.266;7.920;2023-05-07T07:25:22;14.63;;;13.02;;
29662;SDS011;16578;53.266;7.920;2023-05-07T07:27:48;13.77;;;12.38;;
29662;SDS011;16578;53.266;7.920;2023-05-07T07:30:14;13.85;;;12.38;;
29662;SDS011;16578;53.266;7.920;2023-05-07T07:32:40;13.30;;;11.95;;
29662;SDS011;16578;53.266;7.920;2023-05-07T07:35:06;13.98;;;12.57;;
29662;SDS011;16578;53.266;7.920;2023-05-07T07:37:32;14.05;;;12.68;;
29662;SDS011;16578;53.266;7.920;2023-05-07T07:39:57;13.02;;;11.68;;
29662;SDS011;16578;53.266;7.920;2023-05-07T07:42:23;12.38;;;11.18;;
29662;SDS011;16578;53.266;7.920;2023-05-07T07:44:49;12.68;;;11.38;;
29662;SDS011;16578;53.266;7.920;2023-05-07T07:47:14;13.50;;;11.75;;
29662;SDS011;16578;53.266;7.920;2023-05-07T07:49:40;14.68;;;11.80;;
29662;SDS011;16578;53.266;7.920;2023-05-07T07:52:05;14.40;;;12.23;;
29662;SDS011;16578;53.266;7.920;2023-05-07T07:54:31;12.00;;;10.82;;
29662;SDS011;16578;53.266;7.920;2023-05-07T07:56:57;12.27;;;11.02;;
29662;SDS011;16578;53.266;7.920;2023-05-07T07:59:23;12.48;;;11.23;;
29662;SDS011;16578;53.266;7.920;2023-05-07T08:01:48;13.32;;;12.00;;
29662;SDS011;16578;53.266;7.920;2023-05-07T08:04:15;11.75;;;10.52;;
29662;SDS011;16578;53.266;7.920;2023-05-07T08:06:40;12.80;;;11.55;;
29662;SDS011;16578;53.266;7.920;2023-05-07T08:09:07;12.90;;;11.60;;
29662;SDS011;16578;53.266;7.920;2023-05-07T08:11:33;12.07;;;10.80;;
29662;SDS011;16578;53.266;7.920;2023-05-07T08:13:59;11.10;;;10.00;;
29662;SDS011;16578;53.266;7.920;2023-05-07T08:16:25;11.77;;;10.65;;
29662;SDS011;16578;53.266;7.920;2023-05-07T08:18:50;10.85;;;9.82;;
29662;SDS011;16578;53.266;7.920;2023-05-07T08:21:16;12.35;;;11.07;;
29662;SDS011;16578;53.266;7.920;2023-05-07T08:23:42;11.70;;;10.60;;
29662;SDS011;16578;53.266;7.920;2023-05-07T08:26:08;11.25;;;10.15;;
29662;SDS011;16578;53.266;7.920;2023-05-07T08:28:34;12.10;;;10.90;;
29662;SDS011;16578;53.266;7.920;2023-05-07T08:31:00;11.23;;;10.23;;
29662;SDS011;16578;53.266;7.920;2023-05-07T08:33:26;10.77;;;9.70;;
29662;SDS011;16578;53.266;7.920;2023-05-07T08:35:51;11.70;;;10.52;;
29662;SDS011;16578;53.266;7.920;2023-05-07T08:38:17;12.85;;;10.70;;
29662;SDS011;16578;53.266;7.920;2023-05-07T08:40:43;10.70;;;9.68;;
29662;SDS011;16578;53.266;7.920;2023-05-07T08:43:08;11.20;;;10.00;;
29662;SDS011;16578;53.266;7.920;2023-05-07T08:45:38;11.68;;;10.48;;
29662;SDS011;16578;53.266;7.920;2023-05-07T08:48:05;12.10;;;10.90;;
29662;SDS011;16578;53.266;7.920;2023-05-07T08:50:37;11.82;;;10.63;;
29662;SDS011;16578;53.266;7.920;2023-05-07T08:55:29;10.45;;;9.45;;
29662;SDS011;16578;53.266;7.920;2023-05-07T08:57:55;11.98;;;10.80;;
29662;SDS011;16578;53.266;7.920;2023-05-07T09:00:20;11.13;;;10.07;;
29662;SDS011;16578;53.266;7.920;2023-05-07T09:02:46;11.80;;;10.65;;
29662;SDS011;16578;53.266;7.920;2023-05-07T09:05:12;13.23;;;10.52;;
29662;SDS011;16578;53.266;7.920;2023-05-07T09:07:37;11.95;;;10.80;;
29662;SDS011;16578;53.266;7.920;2023-05-07T09:10:03;11.95;;;10.75;;
29662;SDS011;16578;53.266;7.920;2023-05-07T09:12:30;11.85;;;10.57;;
29662;SDS011;16578;53.266;7.920;2023-05-07T09:14:55;11.20;;;10.10;;
29662;SDS011;16578;53.266;7.920;2023-05-07T09:17:21;10.75;;;9.75;;
29662;SDS011;16578;53.266;7.920;2023-05-07T09:19:47;11.40;;;10.20;;
29662;SDS011;16578;53.266;7.920;2023-05-07T09:22:12;11.20;;;10.05;;
29662;SDS011;16578;53.266;7.920;2023-05-07T09:24:38;12.18;;;10.90;;
29662;SDS011;16578;53.266;7.920;2023-05-07T09:27:04;12.23;;;11.02;;
29662;SDS011;16578;53.266;7.920;2023-05-07T09:29:30;11.73;;;10.63;;
29662;SDS011;16578;53.266;7.920;2023-05-07T09:32:00;11.15;;;10.13;;
29662;SDS011;16578;53.266;7.920;2023-05-07T09:34:28;12.23;;;11.13;;
29662;SDS011;16578;53.266;7.920;2023-05-07T09:36:54;11.40;;;10.30;;
29662;SDS011;16578;53.266;7.920;2023-05-07T09:39:21;11.98;;;10.85;;
29662;SDS011;16578;53.266;7.920;2023-05-07T09:41:48;11.43;;;10.23;;
29662;SDS011;16578;53.266;7.920;2023-05-07T09:44:14;12.85;;;11.55;;
29662;SDS011;16578;53.266;7.920;2023-05-07T09:46:41;11.38;;;10.27;;
29662;SDS011;16578;53.266;7.920;2023-05-07T09:49:08;15.53;;;11.60;;
29662;SDS011;16578;53.266;7.920;2023-05-07T09:52:12;11.02;;;9.95;;
29662;SDS011;16578;53.266;7.920;2023-05-07T09:54:33;11.23;;;10.02;;
29662;SDS011;16578;53.266;7.920;2023-05-07T09:57:03;12.18;;;11.00;;
29662;SDS011;16578;53.266;7.920;2023-05-07T09:59:31;10.63;;;9.63;;
29662;SDS011;16578;53.266;7.920;2023-05-07T10:01:58;10.55;;;9.55;;
29662;SDS011;16578;53.266;7.920;2023-05-07T10:04:27;16.00;;;11.10;;
29662;SDS011;16578;53.266;7.920;2023-05-07T10:06:53;10.27;;;9.27;;
29662;SDS011;16578;53.266;7.920;2023-05-07T10:09:20;11.20;;;9.77;;
29662;SDS011;16578;53.266;7.920;2023-05-07T10:11:46;11.00;;;9.90;;
29662;SDS011;16578;53.266;7.920;2023-05-07T10:14:16;9.82;;;8.93;;
29662;SDS011;16578;53.266;7.920;2023-05-07T10:16:42;10.60;;;9.60;;
29662;SDS011;16578;53.266;7.920;2023-05-07T10:19:08;10.38;;;9.38;;
29662;SDS011;16578;53.266;7.920;2023-05-07T10:21:37;9.93;;;9.05;;
29662;SDS011;16578;53.266;7.920;2023-05-07T10:24:25;10.23;;;9.23;;
29662;SDS011;16578;53.266;7.920;2023-05-07T10:26:54;10.93;;;9.23;;
29662;SDS011;16578;53.266;7.920;2023-05-07T10:29:28;10.57;;;8.60;;
29662;SDS011;16578;53.266;7.920;2023-05-07T10:32:14;8.70;;;7.88;;
29662;SDS011;16578;53.266;7.920;2023-05-07T10:34:50;8.85;;;8.00;;
29662;SDS011;16578;53.266;7.920;2023-05-07T10:37:20;8.57;;;7.78;;
29662;SDS011;16578;53.266;7.920;2023-05-07T10:39:46;9.50;;;8.60;;
29662;SDS011;16578;53.266;7.920;2023-05-07T10:42:12;8.73;;;7.82;;
29662;SDS011;16578;53.266;7.920;2023-05-07T10:44:39;9.35;;;8.43;;
29662;SDS011;16578;53.266;7.920;2023-05-07T10:47:05;9.60;;;8.65;;
29662;SDS011;16578;53.266;7.920;2023-05-07T10:52:10;8.95;;;8.05;;
29662;SDS011;16578;53.266;7.920;2023-05-07T10:54:40;10.00;;;8.50;;
29662;SDS011;16578;53.266;7.920;2023-05-07T10:59:56;9.13;;;8.25;;
29662;SDS011;16578;53.266;7.920;2023-05-07T11:02:22;8.57;;;7.78;;
29662;SDS011;16578;53.266;7.920;2023-05-07T11:05:30;9.02;;;8.23;;
29662;SDS011;16578;53.266;7.920;2023-05-07T11:07:55;8.68;;;7.85;;
29662;SDS011;16578;53.266;7.920;2023-05-07T11:10:22;8.43;;;7.63;;
29662;SDS011;16578;53.266;7.920;2023-05-07T11:12:49;9.55;;;8.65;;
29662;SDS011;16578;53.266;7.920;2023-05-07T11:15:16;11.98;;;8.27;;
29662;SDS011;16578;53.266;7.920;2023-05-07T11:17:59;11.05;;;7.60;;
29662;SDS011;16578;53.266;7.920;2023-05-07T11:26:06;9.75;;;8.85;;
29662;SDS011;16578;53.266;7.920;2023-05-07T11:28:39;9.52;;;8.60;;
29662;SDS011;16578;53.266;7.920;2023-05-07T11:31:06;10.80;;;9.13;;
29662;SDS011;16578;53.266;7.920;2023-05-07T11:33:33;10.05;;;9.15;;
29662;SDS011;16578;53.266;7.920;2023-05-07T11:36:00;11.13;;;7.95;;
29662;SDS011;16578;53.266;7.920;2023-05-07T11:38:28;9.98;;;8.98;;
29662;SDS011;16578;53.266;7.920;2023-05-07T11:40:55;9.90;;;9.00;;
29662;SDS011;16578;53.266;7.920;2023-05-07T11:43:22;10.68;;;9.02;;
29662;SDS011;16578;53.266;7.920;2023-05-07T11:45:48;9.35;;;8.45;;
29662;SDS011;16578;53.266;7.920;2023-05-07T11:48:14;11.63;;;9.88;;
29662;SDS011;16578;53.266;7.920;2023-05-07T11:50:53;10.23;;;9.32;;
29662;SDS011;16578;53.266;7.920;2023-05-07T11:53:25;10.52;;;9.52;;
29662;SDS011;16578;53.266;7.920;2023-05-07T11:55:52;9.95;;;9.05;;
29662;SDS011;16578;53.266;7.920;2023-05-07T11:58:22;9.77;;;8.88;;
29662;SDS011;16578;53.266;7.920;2023-05-07T12:00:50;10.40;;;9.13;;
29662;SDS011;16578;53.266;7.920;2023-05-07T12:03:17;10.30;;;9.40;;
29662;SDS011;16578;53.266;7.920;2023-05-07T12:05:43;10.80;;;9.68;;
29662;SDS011;16578;53.266;7.920;2023-05-07T12:08:13;10.23;;;9.23;;
29662;SDS011;16578;53.266;7.920;2023-05-07T12:10:43;9.95;;;9.05;;
29662;SDS011;16578;53.266;7.920;2023-05-07T12:13:19;9.93;;;8.93;;
29662;SDS011;16578;53.266;7.920;2023-05-07T12:15:46;10.65;;;9.57;;
29662;SDS011;16578;53.266;7.920;2023-05-07T12:18:15;10.68;;;9.60;;
29662;SDS011;16578;53.266;7.920;2023-05-07T12:20:40;11.15;;;10.05;;
29662;SDS011;16578;53.266;7.920;2023-05-07T12:23:06;9.88;;;8.98;;
29662;SDS011;16578;53.266;7.920;2023-05-07T12:25:36;10.48;;;9.52;;
29662;SDS011;16578;53.266;7.920;2023-05-07T12:28:02;11.13;;;10.05;;
29662;SDS011;16578;53.266;7.920;2023-05-07T12:30:32;10.77;;;9.68;;
29662;SDS011;16578;53.266;7.920;2023-05-07T12:33:04;10.05;;;9.05;;
29662;SDS011;16578;53.266;7.920;2023-05-07T12:35:30;10.25;;;9.23;;
29662;SDS011;16578;53.266;7.920;2023-05-07T12:37:57;10.68;;;9.65;;
29662;SDS011;16578;53.266;7.920;2023-05-07T12:40:34;10.90;;;9.80;;
29662;SDS011;16578;53.266;7.920;2023-05-07T12:43:04;10.65;;;9.65;;
29662;SDS011;16578;53.266;7.920;2023-05-07T12:45:29;10.45;;;9.45;;
29662;SDS011;16578;53.266;7.920;2023-05-07T12:47:55;10.85;;;9.75;;
29662;SDS011;16578;53.266;7.920;2023-05-07T12:50:26;10.63;;;9.52;;
29662;SDS011;16578;53.266;7.920;2023-05-07T12:52:55;10.00;;;9.07;;
29662;SDS011;16578;53.266;7.920;2023-05-07T12:55:21;10.60;;;9.60;;
29662;SDS011;16578;53.266;7.920;2023-05-07T12:57:49;11.40;;;10.07;;
29662;SDS011;16578;53.266;7.920;2023-05-07T13:00:16;11.48;;;10.38;;
29662;SDS011;16578;53.266;7.920;2023-05-07T13:02:42;10.35;;;8.95;;
29662;SDS011;16578;53.266;7.920;2023-05-07T13:05:09;10.75;;;9.73;;
29662;SDS011;16578;53.266;7.920;2023-05-07T13:07:35;9.98;;;9.00;;
29662;SDS011;16578;53.266;7.920;2023-05-07T13:10:02;10.82;;;9.82;;
29662;SDS011;16578;53.266;7.920;2023-05-07T13:12:27;10.57;;;9.38;;
29662;SDS011;16578;53.266;7.920;2023-05-07T13:14:53;10.95;;;9.50;;
29662;SDS011;16578;53.266;7.920;2023-05-07T13:17:19;10.15;;;9.18;;
29662;SDS011;16578;53.266;7.920;2023-05-07T13:19:44;9.77;;;8.85;;
29662;SDS011;16578;53.266;7.920;2023-05-07T13:22:10;9.75;;;8.75;;
29662;SDS011;16578;53.266;7.920;2023-05-07T13:24:35;10.30;;;9.25;;
29662;SDS011;16578;53.266;7.920;2023-05-07T13:27:01;9.85;;;8.85;;
29662;SDS011;16578;53.266;7.920;2023-05-07T13:29:27;10.77;;;9.77;;
29662;SDS011;16578;53.266;7.920;2023-05-07T13:31:55;10.55;;;9.55;;
29662;SDS011;16578;53.266;7.920;2023-05-07T13:34:21;14.82;;;9.80;;
29662;SDS011;16578;53.266;7.920;2023-05-07T13:36:47;10.63;;;9.63;;
29662;SDS011;16578;53.266;7.920;2023-05-07T13:39:12;10.55;;;9.45;;
29662;SDS011;16578;53.266;7.920;2023-05-07T13:41:38;10.95;;;9.95;;
29662;SDS011;16578;53.266;7.920;2023-05-07T13:44:04;10.30;;;9.30;;
29662;SDS011;16578;53.266;7.920;2023-05-07T13:46:29;10.57;;;9.57;;
29662;SDS011;16578;53.266;7.920;2023-05-07T13:48:55;11.35;;;8.60;;
29662;SDS011;16578;53.266;7.920;2023-05-07T13:51:21;10.70;;;9.60;;
29662;SDS011;16578;53.266;7.920;2023-05-07T13:53:47;10.55;;;9.50;;
29662;SDS011;16578;53.266;7.920;2023-05-07T13:56:12;12.45;;;9.07;;
29662;SDS011;16578;53.266;7.920;2023-05-07T13:58:39;10.48;;;9.40;;
29662;SDS011;16578;53.266;7.920;2023-05-07T14:01:05;10.73;;;9.63;;
29662;SDS011;16578;53.266;7.920;2023-05-07T14:03:30;10.57;;;9.38;;
29662;SDS011;16578;53.266;7.920;2023-05-07T14:05:57;9.60;;;8.63;;
29662;SDS011;16578;53.266;7.920;2023-05-07T14:08:24;9.68;;;8.75;;
29662;SDS011;16578;53.266;7.920;2023-05-07T14:10:50;9.65;;;8.80;;
29662;SDS011;16578;53.266;7.920;2023-05-07T14:13:16;8.77;;;7.97;;
29662;SDS011;16578;53.266;7.920;2023-05-07T14:15:42;9.23;;;7.90;;
29662;SDS011;16578;53.266;7.920;2023-05-07T14:18:11;8.77;;;7.97;;
29662;SDS011;16578;53.266;7.920;2023-05-07T14:20:37;8.48;;;7.68;;
29662;SDS011;16578;53.266;7.920;2023-05-07T14:23:02;8.05;;;7.35;;
29662;SDS011;16578;53.266;7.920;2023-05-07T14:25:28;9.23;;;8.32;;
29662;SDS011;16578;53.266;7.920;2023-05-07T14:27:54;8.40;;;7.68;;
29662;SDS011;16578;53.266;7.920;2023-05-07T14:30:19;8.45;;;7.70;;
29662;SDS011;16578;53.266;7.920;2023-05-07T14:32:45;9.48;;;8.07;;
29662;SDS011;16578;53.266;7.920;2023-05-07T14:35:10;8.43;;;7.63;;
29662;SDS011;16578;53.266;7.920;2023-05-07T14:37:36;7.85;;;6.90;;
29662;SDS011;16578;53.266;7.920;2023-05-07T14:40:01;7.50;;;6.80;;
29662;SDS011;16578;53.266;7.920;2023-05-07T14:42:27;8.07;;;7.22;;